Aeroporto :







RITROVATECI SU...

 
LOGIN :

Iscrizione | Disclaimer

   EN    FR    IT 

 









Sommario :    VFR   VFR Marginale   IFR   IFR Intensivo   IFR Molto Intensivo
Visibilità : 
Base nubi : 
>= 8 km
>= 3000ft
5 / 8 km
1000 / 3000 ft
1500m / 5 km
500 / 1000 ft
800 / 1500m
200 / 500 ft
< 800m
< 200 ft
Simboli :   Temporali  Nebbia  Neve Forte  Precipitazioni Forti  Vento > 20 kt






- Altitudine del aeroporto : 83 ft


KBHB - Hancock County-Bar Harbor

ULTIMO METAR :
  • 171656Z AUTO 35004KT 10SM CLR 00/M11 A3046 RMK AO2 SLP318 T00001111 FZRANO

METARs OBSOLETI :
  • 171556Z AUTO 00000KT 10SM CLR M02/M10 A3050 RMK AO2 SLP330 T10171100 FZRANO
  • 171456Z AUTO 04004KT 10SM CLR M03/M10 A3052 RMK AO2 SLP338 T10331100 56005 FZRANO

TAF KBHB
Valido dal 17 a 12 ore il 18 a 12 ore UTC


171120Z 1712/1812 03003KT P6SM SKC
FM171700 06004KT P6SM SKC
FM180800 05008KT P6SM VCSH BKN028
FM181100 05010G18KT P6SM VCSH OVC017



MetMap, La meteo Aeronautica in un colpo d'occhio ! - Copyright ORBIFLY Dicembre 2007 - Disclaimer

ORBIFLY MET'MAP TEAM :

Programmazione e sviluppo : Alexandra Zaïnal
Concezione e sviluppo : Baudouin d'Aumeries
Co-Programmazione e sviluppo : Marc-Olivier Méhu
Supporto tecnico e logistico : Manuel Goepfert
Aiuto per la traduzione : Arnaldo La Scala

Contatto : metmap@orbifly.com




FONTI E CREDITI :

   NOAA